createdAt,value
2018-06-12T06:38:03.440Z,27.26
2018-06-12T06:40:32.812Z,27.40
2018-06-12T06:43:02.292Z,27.35
2018-06-12T06:45:31.304Z,27.44
2018-06-12T06:48:00.561Z,27.56
2018-06-12T06:50:29.870Z,27.68
2018-06-12T06:52:59.246Z,27.73
2018-06-12T06:55:28.511Z,27.80
2018-06-12T06:57:57.812Z,27.92
2018-06-12T07:00:27.238Z,28.14
2018-06-12T07:02:56.583Z,28.33
2018-06-12T07:05:25.613Z,28.35
2018-06-12T07:07:54.762Z,28.55
2018-06-12T07:10:23.884Z,28.87
2018-06-12T07:12:53.024Z,29.12
2018-06-12T07:15:22.242Z,29.33
2018-06-12T07:17:51.375Z,29.37
2018-06-12T07:20:31.444Z,29.54
2018-06-12T07:23:00.804Z,29.60
2018-06-12T07:25:30.119Z,29.67
2018-06-12T07:27:59.121Z,29.54
2018-06-12T07:30:28.455Z,29.58
2018-06-12T07:32:57.772Z,29.76
2018-06-12T07:35:27.132Z,29.79
2018-06-12T07:37:56.422Z,29.94
2018-06-12T07:40:25.687Z,30.02
2018-06-12T07:42:54.912Z,30.00
2018-06-12T07:45:24.012Z,30.04
2018-06-12T07:47:53.259Z,30.19
2018-06-12T07:50:22.484Z,30.36
2018-06-12T07:52:51.860Z,30.47
2018-06-12T07:55:21.197Z,30.64
2018-06-12T07:57:50.701Z,30.82
2018-06-12T08:00:19.676Z,31.13
2018-06-12T08:02:48.737Z,31.35
2018-06-12T08:05:18.145Z,31.32
2018-06-12T08:07:47.347Z,31.25
2018-06-12T08:10:16.641Z,31.31
2018-06-12T08:12:46.045Z,31.42
2018-06-12T08:15:15.368Z,31.52
2018-06-12T08:17:44.758Z,31.48
2018-06-12T08:20:14.144Z,31.50
2018-06-12T08:22:43.525Z,31.47
2018-06-12T08:25:12.921Z,31.66
2018-06-12T08:27:42.224Z,31.99
2018-06-12T08:30:11.573Z,32.31
2018-06-12T08:32:40.868Z,32.54
2018-06-12T08:35:10.409Z,32.79
2018-06-12T08:37:39.686Z,32.97
2018-06-12T08:40:08.943Z,33.21
2018-06-12T08:42:38.296Z,33.54
2018-06-12T08:45:07.495Z,33.80
2018-06-12T08:47:36.929Z,33.70
2018-06-12T08:50:06.117Z,33.63
2018-06-12T08:52:35.153Z,33.60
2018-06-12T08:55:04.484Z,33.65
2018-06-12T08:57:33.809Z,33.68
2018-06-12T09:00:03.221Z,33.71
2018-06-12T09:02:32.633Z,33.52
2018-06-12T09:05:01.901Z,33.42
2018-06-12T09:07:31.081Z,33.44
2018-06-12T09:10:00.333Z,33.42
2018-06-12T09:12:29.625Z,33.54
2018-06-12T09:14:59.050Z,33.72
2018-06-12T09:17:28.309Z,33.82
2018-06-12T09:19:57.601Z,33.69
2018-06-12T09:22:26.917Z,33.70
2018-06-12T09:24:56.288Z,33.92
2018-06-12T09:27:25.488Z,33.95
2018-06-12T09:29:54.720Z,34.12
2018-06-12T09:32:23.708Z,34.29
2018-06-12T09:34:53.059Z,34.49
2018-06-12T09:37:22.293Z,34.65
2018-06-12T09:39:51.508Z,34.44
2018-06-12T09:42:20.832Z,33.97
2018-06-12T09:44:49.870Z,34.10
2018-06-12T09:47:18.876Z,34.09
2018-06-12T09:49:47.956Z,33.73
2018-06-12T09:52:16.927Z,33.25
2018-06-12T09:54:46.037Z,33.11
2018-06-12T09:57:15.287Z,33.09
2018-06-12T09:59:44.569Z,33.02
2018-06-12T10:02:15.461Z,33.03
2018-06-12T10:04:44.752Z,33.16
2018-06-12T10:07:14.033Z,33.01
2018-06-12T10:09:43.303Z,32.94
2018-06-12T10:12:12.676Z,33.01
2018-06-12T10:14:41.865Z,33.38
2018-06-12T10:17:11.170Z,33.80
2018-06-12T10:19:40.613Z,34.10
2018-06-12T10:22:09.973Z,34.45
2018-06-12T10:24:39.304Z,34.95
2018-06-12T10:27:08.577Z,35.25
2018-06-12T10:29:37.892Z,35.27
2018-06-12T10:32:07.272Z,34.89
2018-06-12T10:34:36.637Z,34.71
2018-06-12T10:37:06.293Z,34.80
2018-06-12T10:39:35.500Z,35.00
2018-06-12T10:42:04.719Z,35.25
2018-06-12T10:44:34.069Z,35.14
2018-06-12T10:47:03.374Z,34.83
2018-06-12T10:49:32.585Z,34.47
2018-06-12T10:52:01.913Z,34.18
2018-06-12T10:54:31.398Z,34.03
2018-06-12T10:57:00.813Z,33.97
2018-06-12T10:59:30.141Z,34.11
2018-06-12T11:01:59.512Z,34.28
2018-06-12T11:04:28.989Z,34.61
2018-06-12T11:06:58.252Z,34.72
2018-06-12T11:09:27.533Z,34.85
2018-06-12T11:11:56.861Z,34.94
2018-06-12T11:14:26.234Z,34.74
2018-06-12T11:16:55.336Z,34.86
2018-06-12T11:19:24.676Z,34.92
2018-06-12T11:21:54.064Z,34.81
2018-06-12T11:24:23.481Z,34.90
2018-06-12T11:26:52.900Z,35.03
2018-06-12T11:29:22.192Z,35.09
2018-06-12T11:31:51.448Z,35.22
2018-06-12T11:34:20.845Z,35.22
2018-06-12T11:36:50.106Z,35.04
2018-06-12T11:39:19.371Z,34.81
2018-06-12T11:41:48.692Z,34.55
2018-06-12T11:44:18.023Z,34.34
2018-06-12T11:46:47.300Z,34.25
2018-06-12T11:49:16.763Z,34.08
2018-06-12T11:51:46.141Z,33.89
2018-06-12T11:54:15.336Z,34.05
2018-06-12T11:56:44.611Z,34.12
2018-06-12T11:59:13.849Z,33.94
2018-06-12T12:01:43.002Z,33.85
2018-06-12T12:04:12.300Z,34.09
2018-06-12T12:06:41.532Z,34.33
2018-06-12T12:09:10.813Z,34.47
2018-06-12T12:11:40.043Z,34.58
2018-06-12T12:14:09.295Z,34.78
2018-06-12T12:16:39.224Z,35.02
2018-06-12T12:19:08.332Z,35.10
2018-06-12T12:21:37.332Z,35.28
2018-06-12T12:24:06.778Z,35.14
2018-06-12T12:26:35.976Z,35.11
2018-06-12T12:29:05.364Z,34.92
2018-06-12T12:31:34.727Z,34.70
2018-06-12T12:34:04.393Z,34.54
2018-06-12T12:36:33.736Z,34.47
2018-06-12T12:39:03.161Z,34.37
2018-06-12T12:41:32.465Z,34.22
2018-06-12T12:44:01.652Z,34.11
2018-06-12T12:46:30.968Z,34.10
2018-06-12T12:49:00.128Z,34.10
2018-06-12T12:51:29.205Z,34.03
2018-06-12T12:53:58.494Z,33.86
2018-06-12T12:56:27.916Z,33.60
2018-06-12T12:58:57.279Z,33.49
2018-06-12T13:01:26.673Z,33.55
2018-06-12T13:03:56.036Z,33.70
2018-06-12T13:06:25.364Z,33.94
2018-06-12T13:08:54.684Z,34.27
2018-06-12T13:11:24.073Z,34.65
2018-06-12T13:13:53.543Z,34.98
2018-06-12T13:16:22.752Z,35.21
2018-06-12T13:18:51.980Z,35.27
2018-06-12T13:21:21.211Z,35.41
2018-06-12T13:23:50.480Z,35.48
2018-06-12T13:26:19.908Z,35.43
2018-06-12T13:28:49.169Z,35.34
2018-06-12T13:31:18.553Z,35.09
2018-06-12T13:33:47.947Z,34.81
2018-06-12T13:36:17.297Z,34.82
2018-06-12T13:38:46.696Z,34.75
2018-06-12T13:41:16.058Z,34.62
2018-06-12T13:43:45.417Z,34.45
2018-06-12T13:46:14.744Z,34.12
2018-06-12T13:48:44.009Z,33.84
2018-06-12T13:51:13.312Z,33.44
2018-06-12T13:53:42.428Z,33.27
2018-06-12T13:56:11.560Z,33.16
2018-06-12T13:58:40.933Z,33.14
2018-06-12T14:01:10.341Z,33.06
2018-06-12T14:03:39.756Z,33.02
2018-06-12T14:06:09.040Z,32.94
2018-06-12T14:08:38.255Z,32.88
2018-06-12T14:11:07.549Z,32.97
2018-06-12T14:13:36.803Z,33.04
2018-06-12T14:16:06.097Z,33.12
2018-06-12T14:18:35.454Z,32.97
2018-06-12T14:21:04.663Z,33.07
2018-06-12T14:23:33.908Z,33.02
2018-06-12T14:26:03.037Z,33.08
2018-06-12T14:28:32.274Z,33.01
2018-06-12T14:31:01.216Z,33.04
2018-06-12T14:33:30.439Z,33.14
2018-06-12T14:35:59.624Z,33.38
2018-06-12T14:38:28.906Z,33.64
2018-06-12T14:40:58.376Z,33.59
2018-06-12T14:43:27.404Z,33.33
2018-06-12T14:45:56.669Z,33.28
2018-06-12T14:48:26.103Z,33.43
2018-06-12T14:50:55.352Z,33.55
2018-06-12T14:53:24.628Z,33.70
2018-06-12T14:55:54.065Z,33.88
2018-06-12T14:58:23.341Z,34.01
2018-06-12T15:00:52.660Z,33.98
2018-06-12T15:03:21.955Z,33.95
2018-06-12T15:05:51.325Z,33.95
2018-06-12T15:08:20.589Z,33.96
2018-06-12T15:10:50.005Z,34.02
2018-06-12T15:13:19.375Z,34.02
2018-06-12T15:15:48.688Z,33.90
2018-06-12T15:18:17.836Z,33.92
2018-06-12T15:20:47.195Z,33.92
2018-06-12T15:23:16.311Z,33.88
2018-06-12T15:25:45.424Z,33.68
2018-06-12T15:28:14.553Z,33.51
2018-06-12T15:30:43.697Z,33.40
2018-06-12T15:33:12.965Z,33.31
2018-06-12T15:35:42.077Z,33.35
2018-06-12T15:38:11.315Z,33.36
2018-06-12T15:40:40.619Z,33.38
2018-06-12T15:43:09.912Z,33.44
2018-06-12T15:45:39.232Z,33.48
2018-06-12T15:48:09.314Z,33.53
2018-06-12T15:50:38.568Z,33.56
2018-06-12T15:53:07.784Z,33.51
2018-06-12T15:55:37.093Z,33.42
2018-06-12T15:58:06.395Z,33.36
2018-06-12T16:00:35.789Z,32.79
2018-06-12T16:03:04.997Z,33.19
2018-06-12T16:05:34.332Z,33.06
2018-06-12T16:08:03.651Z,33.07
2018-06-12T16:10:32.619Z,33.03
2018-06-12T16:13:01.941Z,32.99
2018-06-12T16:15:31.295Z,32.90
2018-06-12T16:18:00.592Z,32.76
2018-06-12T16:20:29.873Z,32.60
2018-06-12T16:22:59.236Z,32.46
2018-06-12T16:25:28.525Z,32.27
2018-06-12T16:27:57.569Z,32.19
2018-06-12T16:30:26.920Z,32.20
2018-06-12T16:32:55.927Z,32.16
2018-06-12T16:35:25.159Z,32.12
2018-06-12T16:37:54.400Z,32.08
2018-06-12T16:40:23.515Z,32.02
2018-06-12T16:42:52.735Z,31.94
2018-06-12T16:45:22.008Z,31.78
2018-06-12T16:47:51.346Z,31.70
2018-06-12T16:50:21.270Z,31.60
2018-06-12T16:52:50.635Z,31.51
2018-06-12T16:55:19.997Z,31.43
2018-06-12T16:57:49.436Z,31.33
2018-06-12T17:00:18.804Z,31.13
2018-06-12T17:02:47.955Z,31.00
2018-06-12T17:05:17.154Z,30.94
2018-06-12T17:07:46.373Z,30.82
2018-06-12T17:10:15.662Z,30.73
2018-06-12T17:12:44.922Z,30.64
2018-06-12T17:15:14.205Z,30.51
2018-06-12T17:17:43.479Z,30.46
2018-06-12T17:20:12.692Z,30.42
2018-06-12T17:22:42.073Z,30.35
2018-06-12T17:25:11.335Z,30.28
2018-06-12T17:27:40.561Z,30.20
2018-06-12T17:30:09.949Z,30.09
2018-06-12T17:32:39.299Z,30.02
2018-06-12T17:35:08.746Z,29.95
2018-06-12T17:37:38.105Z,29.86
2018-06-12T17:40:07.541Z,29.78
2018-06-12T17:42:36.972Z,29.66
2018-06-12T17:45:06.332Z,29.56
2018-06-12T17:47:35.673Z,29.46
2018-06-12T17:50:05.050Z,29.36
2018-06-12T17:52:34.464Z,29.20
2018-06-12T17:55:03.754Z,29.05
2018-06-12T17:57:33.101Z,28.97
2018-06-12T18:00:02.442Z,28.87
2018-06-12T18:02:31.624Z,28.79
2018-06-12T18:05:00.916Z,28.71
2018-06-12T18:07:30.212Z,28.51
2018-06-12T18:09:59.491Z,28.40
2018-06-12T18:12:28.966Z,28.31
2018-06-12T18:14:58.324Z,28.21
2018-06-12T18:17:27.557Z,28.16
2018-06-12T18:20:03.384Z,28.23
2018-06-12T18:22:32.869Z,28.18
2018-06-12T18:25:02.101Z,28.11
2018-06-12T18:27:31.256Z,28.07
2018-06-12T18:30:00.519Z,27.95
2018-06-12T18:32:29.831Z,27.88
2018-06-12T18:34:59.205Z,27.88
2018-06-12T18:37:28.617Z,27.88
2018-06-12T18:39:57.988Z,27.88
2018-06-12T18:42:27.317Z,27.85
2018-06-12T18:44:56.612Z,27.75
2018-06-12T18:47:25.864Z,27.71
2018-06-12T18:49:55.252Z,27.62
2018-06-12T18:52:24.607Z,27.60
2018-06-12T18:54:53.788Z,27.51
2018-06-12T18:57:23.125Z,27.51
2018-06-12T18:59:52.312Z,27.44
2018-06-12T19:02:21.567Z,27.39
2018-06-12T19:04:50.760Z,27.35
2018-06-12T19:07:19.841Z,27.28
2018-06-12T19:09:49.025Z,27.26
2018-06-12T19:12:18.269Z,27.23
2018-06-12T19:14:47.590Z,27.27
2018-06-12T19:17:16.857Z,27.33
2018-06-12T19:19:46.076Z,27.37
2018-06-12T19:22:15.375Z,27.01
2018-06-12T19:24:44.680Z,27.27
2018-06-12T19:27:14.002Z,27.19
2018-06-12T19:29:43.332Z,27.12
2018-06-12T19:32:12.524Z,27.09
2018-06-12T19:34:41.709Z,27.02
2018-06-12T19:37:10.981Z,27.00
2018-06-12T19:39:40.275Z,26.95
2018-06-12T19:42:09.467Z,26.86
2018-06-12T19:44:38.719Z,26.74
2018-06-12T19:47:07.938Z,26.61
2018-06-12T19:49:37.172Z,26.56
2018-06-12T19:52:06.482Z,26.47
2018-06-12T19:54:35.768Z,26.46
2018-06-12T19:57:05.036Z,26.42
2018-06-12T19:59:34.256Z,26.40
2018-06-12T20:02:03.741Z,26.30
2018-06-12T20:04:32.999Z,26.29
2018-06-12T20:07:02.281Z,26.24
2018-06-12T20:09:32.233Z,26.22
2018-06-12T20:12:01.528Z,26.20
2018-06-12T20:14:30.897Z,26.23
2018-06-12T20:17:00.124Z,26.18
2018-06-12T20:19:29.534Z,26.15
2018-06-12T20:21:58.928Z,26.11
2018-06-12T20:24:28.355Z,26.05
2018-06-12T20:26:57.539Z,26.03
2018-06-12T20:29:26.809Z,25.90
2018-06-12T20:31:56.003Z,25.74
2018-06-12T20:34:25.257Z,25.67
2018-06-12T20:36:54.648Z,25.60
2018-06-12T20:39:23.769Z,25.61
2018-06-12T20:41:52.890Z,25.60
2018-06-12T20:44:22.025Z,25.61
2018-06-12T20:46:51.063Z,25.60
2018-06-12T20:49:20.340Z,25.55
2018-06-12T20:51:49.552Z,25.58
2018-06-12T20:54:18.847Z,25.62
2018-06-12T20:56:48.206Z,25.64
2018-06-12T20:59:17.415Z,25.73
2018-06-12T21:01:46.860Z,25.72
2018-06-12T21:04:16.163Z,25.78
2018-06-12T21:06:45.612Z,25.72
2018-06-12T21:09:14.991Z,25.64
2018-06-12T21:11:44.309Z,25.62
2018-06-12T21:14:13.718Z,25.58
2018-06-12T21:16:42.994Z,25.57
2018-06-12T21:19:11.965Z,25.56
2018-06-12T21:21:41.168Z,25.50
2018-06-12T21:24:10.348Z,25.45
2018-06-12T21:26:39.584Z,25.40
2018-06-12T21:29:08.900Z,25.41
2018-06-12T21:31:38.337Z,25.51
2018-06-12T21:34:07.626Z,25.53
2018-06-12T21:36:37.037Z,25.52
2018-06-12T21:39:08.124Z,25.54
2018-06-12T21:41:37.985Z,25.57
2018-06-12T21:44:07.369Z,25.50
2018-06-12T21:46:36.532Z,25.47
2018-06-12T21:49:06.151Z,25.40
2018-06-12T21:51:36.528Z,25.36
2018-06-12T21:54:05.767Z,25.32
2018-06-12T21:56:34.998Z,25.33
2018-06-12T21:59:04.283Z,25.26
2018-06-12T22:01:33.592Z,25.19
2018-06-12T22:04:02.937Z,25.16
2018-06-12T22:06:32.188Z,25.17
2018-06-12T22:09:01.422Z,25.11
2018-06-12T22:11:30.632Z,25.12
2018-06-12T22:13:59.843Z,25.06
2018-06-12T22:16:29.221Z,25.01
2018-06-12T22:18:58.510Z,24.94
2018-06-12T22:21:27.825Z,24.90
2018-06-12T22:23:57.253Z,24.97
2018-06-12T22:26:26.391Z,24.99
2018-06-12T22:28:55.560Z,25.00
2018-06-12T22:31:24.818Z,24.98
2018-06-12T22:33:54.039Z,24.93
2018-06-12T22:36:23.283Z,24.92
2018-06-12T22:38:52.584Z,24.95
2018-06-12T22:41:21.865Z,24.95
2018-06-12T22:43:51.135Z,24.95
2018-06-12T22:46:20.368Z,24.94
2018-06-12T22:48:49.696Z,24.93
2018-06-12T22:51:19.032Z,24.91
2018-06-12T22:53:48.291Z,24.91
2018-06-12T22:56:17.421Z,24.89
2018-06-12T22:58:46.776Z,24.82
2018-06-12T23:01:16.116Z,24.74
2018-06-12T23:03:45.472Z,24.62
2018-06-12T23:06:14.811Z,24.54
2018-06-12T23:08:44.136Z,24.53
2018-06-12T23:11:13.469Z,24.45
2018-06-12T23:13:42.732Z,24.41
2018-06-12T23:16:12.017Z,24.40
2018-06-12T23:18:41.415Z,24.39
2018-06-12T23:21:21.309Z,24.37
2018-06-12T23:23:50.616Z,24.43
2018-06-12T23:26:20.083Z,24.46
2018-06-12T23:28:49.400Z,24.47
2018-06-12T23:31:18.737Z,24.51
2018-06-12T23:33:48.044Z,24.47
2018-06-12T23:36:17.428Z,24.48
2018-06-12T23:38:46.765Z,24.50
2018-06-12T23:41:16.025Z,24.51
2018-06-12T23:43:45.325Z,24.43
2018-06-12T23:46:14.637Z,24.38
2018-06-12T23:48:44.110Z,24.36
2018-06-12T23:51:13.375Z,24.33
2018-06-12T23:53:42.325Z,24.35
2018-06-12T23:56:11.707Z,24.26
2018-06-12T23:58:40.892Z,24.14
